EWG6931 EDDS-EDDH
Flight info
| Callsign | EWG6931 |
|---|---|
| Flight time | 1h 0m |
| Altitude | 39000 |
| Route | OKIBA4H OKIBA N851 RIMKI Z99 LOHRE DCT MASEK DCT ELNAT/N0427F380 P605 NOLGO NOLGO3P |
| Aircraft | A20N/M-SDE2E3FGHIRWXY/LB1 |
Departure
| Time | 2026-04-26 14:57 |
|---|---|
| Airport | Stuttgart Airport (EDDS) |
Arrival
| Time | 2026-04-26 15:58 |
|---|---|
| Airport | Hamburg Helmut Schmidt Airport (EDDH) |
| Time | Latitude | Longitude | Altitude | Speed | Heading |
|---|---|---|---|---|---|
| 2026-04-26 14:36 | 48.68937 | 9.19723 | 1287 ft | 0 kts | 344° |
| 2026-04-26 14:51 | 48.68933 | 9.19724 | 1285 ft | 1 kts | 344° |
| 2026-04-26 14:51 | 48.68921 | 9.19729 | 1288 ft | 2 kts | 344° |
| 2026-04-26 14:51 | 48.68906 | 9.19734 | 1291 ft | 2 kts | 358° |
| 2026-04-26 14:52 | 48.68895 | 9.19734 | 1289 ft | 2 kts | 10° |
| 2026-04-26 14:52 | 48.68881 | 9.19728 | 1289 ft | 2 kts | 29° |
| 2026-04-26 14:52 | 48.68869 | 9.19715 | 1287 ft | 2 kts | 53° |
| 2026-04-26 14:52 | 48.68863 | 9.19702 | 1286 ft | 0 kts | 70° |
| 2026-04-26 14:54 | 48.68871 | 9.19741 | 1286 ft | 8 kts | 81° |
| 2026-04-26 14:54 | 48.68889 | 9.19833 | 1286 ft | 10 kts | 91° |
| 2026-04-26 14:55 | 48.68839 | 9.19894 | 1285 ft | 11 kts | 160° |
| 2026-04-26 14:55 | 48.68756 | 9.19943 | 1285 ft | 15 kts | 158° |
| 2026-04-26 14:55 | 48.68729 | 9.19960 | 1287 ft | 0 kts | 158° |
| 2026-04-26 14:55 | 48.68728 | 9.19961 | 1287 ft | 2 kts | 158° |
| 2026-04-26 14:56 | 48.68676 | 9.19995 | 1289 ft | 16 kts | 155° |
| 2026-04-26 14:56 | 48.68592 | 9.20118 | 1285 ft | 15 kts | 94° |
| 2026-04-26 14:56 | 48.68616 | 9.20237 | 1286 ft | 11 kts | 63° |
| 2026-04-26 14:56 | 48.68623 | 9.20277 | 1286 ft | 4 kts | 76° |
| 2026-04-26 14:57 | 48.68664 | 9.20576 | 1285 ft | 64 kts | 85° |
| 2026-04-26 14:57 | 48.68821 | 9.21498 | 1288 ft | 116 kts | 69° |
| 2026-04-26 14:57 | 48.69095 | 9.22888 | 1362 ft | 153 kts | 76° |
| 2026-04-26 14:57 | 48.69354 | 9.24475 | 1892 ft | 158 kts | 74° |
| 2026-04-26 14:58 | 48.69590 | 9.26066 | 2628 ft | 154 kts | 74° |
| 2026-04-26 14:58 | 48.69855 | 9.27672 | 3231 ft | 163 kts | 72° |
| 2026-04-26 14:58 | 48.70192 | 9.29426 | 3699 ft | 184 kts | 71° |
| 2026-04-26 14:58 | 48.70583 | 9.31374 | 4233 ft | 205 kts | 72° |
| 2026-04-26 14:59 | 48.71024 | 9.33553 | 4790 ft | 227 kts | 72° |
| 2026-04-26 14:59 | 48.71532 | 9.35957 | 5361 ft | 247 kts | 65° |
| 2026-04-26 14:59 | 48.72561 | 9.38080 | 5968 ft | 265 kts | 38° |
| 2026-04-26 14:59 | 48.73649 | 9.39026 | 6569 ft | 270 kts | 18° |
| 2026-04-26 15:00 | 48.76117 | 9.39237 | 7881 ft | 273 kts | 349° |
| 2026-04-26 15:00 | 48.77996 | 9.38614 | 8904 ft | 279 kts | 345° |
| 2026-04-26 15:00 | 48.79897 | 9.37959 | 10003 ft | 282 kts | 347° |
| 2026-04-26 15:00 | 48.81867 | 9.37417 | 10748 ft | 297 kts | 349° |
| 2026-04-26 15:01 | 48.84001 | 9.36990 | 11144 ft | 322 kts | 353° |
| 2026-04-26 15:01 | 48.86302 | 9.36646 | 11645 ft | 340 kts | 354° |
| 2026-04-26 15:01 | 48.88681 | 9.36346 | 12531 ft | 344 kts | 354° |
| 2026-04-26 15:01 | 48.91052 | 9.36065 | 13360 ft | 351 kts | 354° |
| 2026-04-26 15:02 | 48.93498 | 9.35773 | 13519 ft | 353 kts | 354° |
| 2026-04-26 15:02 | 48.95962 | 9.35467 | 14079 ft | 357 kts | 354° |
| 2026-04-26 15:02 | 48.98434 | 9.35154 | 14986 ft | 358 kts | 354° |
| 2026-04-26 15:02 | 49.00929 | 9.34839 | 15786 ft | 362 kts | 354° |
| 2026-04-26 15:03 | 49.03450 | 9.34517 | 16563 ft | 366 kts | 354° |
| 2026-04-26 15:03 | 49.06008 | 9.34188 | 17350 ft | 371 kts | 354° |
| 2026-04-26 15:03 | 49.08591 | 9.33857 | 18116 ft | 375 kts | 354° |
| 2026-04-26 15:03 | 49.11211 | 9.33520 | 18823 ft | 380 kts | 354° |
| 2026-04-26 15:04 | 49.13853 | 9.33180 | 19507 ft | 383 kts | 354° |
| 2026-04-26 15:04 | 49.16482 | 9.32842 | 20166 ft | 387 kts | 354° |
| 2026-04-26 15:04 | 49.19178 | 9.32496 | 20860 ft | 389 kts | 354° |
| 2026-04-26 15:04 | 49.21880 | 9.32151 | 21575 ft | 392 kts | 354° |
| 2026-04-26 15:05 | 49.24617 | 9.31804 | 22211 ft | 396 kts | 354° |
| 2026-04-26 15:05 | 49.26442 | 9.31574 | 22642 ft | 398 kts | 354° |
| 2026-04-26 15:05 | 49.30160 | 9.31111 | 23494 ft | 403 kts | 354° |
| 2026-04-26 15:05 | 49.32973 | 9.30760 | 24084 ft | 407 kts | 353° |
| 2026-04-26 15:06 | 49.35814 | 9.30585 | 24641 ft | 411 kts | 360° |
| 2026-04-26 15:06 | 49.38680 | 9.30922 | 25180 ft | 415 kts | 5° |
| 2026-04-26 15:06 | 49.41562 | 9.31424 | 25703 ft | 418 kts | 5° |
| 2026-04-26 15:06 | 49.44465 | 9.31926 | 26230 ft | 421 kts | 5° |
| 2026-04-26 15:07 | 49.50286 | 9.32853 | 27220 ft | 426 kts | 4° |
| 2026-04-26 15:07 | 49.53246 | 9.33292 | 27708 ft | 429 kts | 4° |
| 2026-04-26 15:07 | 49.56221 | 9.33725 | 28173 ft | 431 kts | 4° |
| 2026-04-26 15:08 | 49.59220 | 9.34159 | 28626 ft | 434 kts | 3° |
| 2026-04-26 15:08 | 49.62240 | 9.34596 | 29018 ft | 438 kts | 3° |
| 2026-04-26 15:08 | 49.65283 | 9.35037 | 29439 ft | 440 kts | 3° |
| 2026-04-26 15:08 | 49.68338 | 9.35481 | 29853 ft | 443 kts | 3° |
| 2026-04-26 15:09 | 49.71415 | 9.35933 | 30265 ft | 445 kts | 3° |
| 2026-04-26 15:09 | 49.74500 | 9.36440 | 30627 ft | 448 kts | 6° |
| 2026-04-26 15:09 | 49.77537 | 9.37358 | 30985 ft | 452 kts | 12° |
| 2026-04-26 15:09 | 49.80595 | 9.38528 | 31339 ft | 454 kts | 12° |
| 2026-04-26 15:10 | 49.83665 | 9.39734 | 31743 ft | 455 kts | 12° |
| 2026-04-26 15:10 | 49.85699 | 9.40535 | 32047 ft | 455 kts | 12° |
| 2026-04-26 15:10 | 49.89791 | 9.42140 | 32701 ft | 452 kts | 12° |
| 2026-04-26 15:10 | 49.92836 | 9.43327 | 33193 ft | 451 kts | 12° |
| 2026-04-26 15:11 | 49.95876 | 9.44506 | 33665 ft | 449 kts | 11° |
| 2026-04-26 15:11 | 49.98898 | 9.45674 | 34122 ft | 448 kts | 11° |
| 2026-04-26 15:11 | 50.01918 | 9.46839 | 34527 ft | 446 kts | 11° |
| 2026-04-26 15:11 | 50.04889 | 9.47986 | 34900 ft | 445 kts | 11° |
| 2026-04-26 15:12 | 50.07912 | 9.48932 | 35259 ft | 442 kts | 5° |
| 2026-04-26 15:12 | 50.10959 | 9.49482 | 35589 ft | 440 kts | 3° |
| 2026-04-26 15:12 | 50.14005 | 9.49969 | 35921 ft | 440 kts | 3° |
| 2026-04-26 15:12 | 50.17048 | 9.50450 | 36245 ft | 439 kts | 3° |
| 2026-04-26 15:13 | 50.20086 | 9.50937 | 36557 ft | 438 kts | 3° |
| 2026-04-26 15:13 | 50.23118 | 9.51430 | 36871 ft | 438 kts | 3° |
| 2026-04-26 15:13 | 50.26147 | 9.51930 | 37171 ft | 437 kts | 3° |
| 2026-04-26 15:13 | 50.29172 | 9.52434 | 37443 ft | 437 kts | 3° |
| 2026-04-26 15:14 | 50.32197 | 9.52941 | 37728 ft | 437 kts | 3° |
| 2026-04-26 15:14 | 50.35176 | 9.53442 | 38000 ft | 436 kts | 3° |
| 2026-04-26 15:14 | 50.38191 | 9.53951 | 38266 ft | 436 kts | 3° |
| 2026-04-26 15:14 | 50.41207 | 9.54460 | 38522 ft | 435 kts | 3° |
| 2026-04-26 15:15 | 50.44217 | 9.54969 | 38768 ft | 435 kts | 3° |
| 2026-04-26 15:15 | 50.47222 | 9.55478 | 38996 ft | 434 kts | 3° |
| 2026-04-26 15:15 | 50.48783 | 9.55744 | 39108 ft | 434 kts | 3° |
| 2026-04-26 15:18 | 50.51169 | 9.56151 | 39218 ft | 435 kts | 3° |
| 2026-04-26 15:18 | 50.53844 | 9.56604 | 39266 ft | 435 kts | 2° |
| 2026-04-26 15:20 | 50.55220 | 9.56838 | 39268 ft | 435 kts | 3° |
| 2026-04-26 15:20 | 50.61203 | 9.57869 | 39264 ft | 424 kts | 2° |
| 2026-04-26 15:21 | 50.67007 | 9.58853 | 39269 ft | 426 kts | 2° |
| 2026-04-26 15:21 | 50.72972 | 9.59861 | 39281 ft | 435 kts | 2° |
| 2026-04-26 15:22 | 50.78925 | 9.60961 | 39274 ft | 434 kts | 4° |
| 2026-04-26 15:22 | 50.84914 | 9.62142 | 39268 ft | 434 kts | 4° |
| 2026-04-26 15:23 | 50.90870 | 9.63312 | 39273 ft | 434 kts | 4° |
| 2026-04-26 15:23 | 50.96859 | 9.64484 | 39284 ft | 434 kts | 4° |
| 2026-04-26 15:24 | 51.02869 | 9.65658 | 39278 ft | 435 kts | 4° |
| 2026-04-26 15:24 | 51.08884 | 9.66835 | 39295 ft | 436 kts | 4° |
| 2026-04-26 15:25 | 51.13889 | 9.67817 | 39289 ft | 436 kts | 4° |
| 2026-04-26 15:25 | 51.20909 | 9.69200 | 39280 ft | 435 kts | 4° |
| 2026-04-26 15:26 | 51.26879 | 9.70227 | 39281 ft | 434 kts | 2° |
| 2026-04-26 15:26 | 51.32892 | 9.71169 | 39288 ft | 434 kts | 2° |
| 2026-04-26 15:27 | 51.38878 | 9.72122 | 39099 ft | 432 kts | 2° |
| 2026-04-26 15:27 | 51.42402 | 9.72691 | 39137 ft | 435 kts | 2° |
| 2026-04-26 15:28 | 51.48385 | 9.73673 | 38642 ft | 430 kts | 2° |
| 2026-04-26 15:28 | 51.51345 | 9.74208 | 38473 ft | 429 kts | 3° |
| 2026-04-26 15:28 | 51.54335 | 9.74772 | 38364 ft | 436 kts | 3° |
| 2026-04-26 15:29 | 51.60321 | 9.75922 | 38292 ft | 435 kts | 3° |
| 2026-04-26 15:30 | 51.72343 | 9.78225 | 38072 ft | 432 kts | 3° |
| 2026-04-26 15:30 | 51.75323 | 9.78793 | 37530 ft | 431 kts | 3° |
| 2026-04-26 15:30 | 51.78308 | 9.79362 | 36828 ft | 432 kts | 3° |
| 2026-04-26 15:31 | 51.81298 | 9.79931 | 36069 ft | 434 kts | 3° |
| 2026-04-26 15:31 | 51.87312 | 9.81078 | 34580 ft | 437 kts | 3° |
| 2026-04-26 15:31 | 51.90295 | 9.81654 | 33784 ft | 438 kts | 3° |
| 2026-04-26 15:32 | 51.95385 | 9.82644 | 32346 ft | 441 kts | 3° |
| 2026-04-26 15:32 | 51.99435 | 9.83430 | 31192 ft | 444 kts | 3° |
| 2026-04-26 15:32 | 52.02507 | 9.84042 | 30375 ft | 446 kts | 5° |
| 2026-04-26 15:33 | 52.05554 | 9.84968 | 29647 ft | 443 kts | 7° |
| 2026-04-26 15:33 | 52.08561 | 9.85933 | 28974 ft | 439 kts | 7° |
| 2026-04-26 15:33 | 52.11538 | 9.86901 | 28320 ft | 434 kts | 7° |
| 2026-04-26 15:33 | 52.14489 | 9.87878 | 27651 ft | 431 kts | 7° |
| 2026-04-26 15:34 | 52.17411 | 9.88856 | 27005 ft | 427 kts | 8° |
| 2026-04-26 15:34 | 52.20274 | 9.89821 | 26383 ft | 423 kts | 8° |
| 2026-04-26 15:34 | 52.23143 | 9.90793 | 25781 ft | 420 kts | 8° |
| 2026-04-26 15:34 | 52.25965 | 9.91751 | 25638 ft | 412 kts | 8° |
| 2026-04-26 15:35 | 52.28811 | 9.92713 | 25522 ft | 421 kts | 8° |
| 2026-04-26 15:35 | 52.31668 | 9.93681 | 25398 ft | 418 kts | 8° |
| 2026-04-26 15:35 | 52.34503 | 9.94646 | 25035 ft | 415 kts | 8° |
| 2026-04-26 15:35 | 52.37314 | 9.95607 | 24569 ft | 411 kts | 8° |
| 2026-04-26 15:36 | 52.40107 | 9.96525 | 23989 ft | 408 kts | 7° |
| 2026-04-26 15:36 | 52.42882 | 9.97379 | 23367 ft | 404 kts | 6° |
| 2026-04-26 15:36 | 52.45631 | 9.98202 | 22741 ft | 399 kts | 6° |
| 2026-04-26 15:36 | 52.48350 | 9.99012 | 22124 ft | 395 kts | 6° |
| 2026-04-26 15:37 | 52.51039 | 9.99815 | 21522 ft | 391 kts | 6° |
| 2026-04-26 15:37 | 52.53668 | 10.00604 | 20933 ft | 388 kts | 7° |
| 2026-04-26 15:37 | 52.56310 | 10.01402 | 20353 ft | 384 kts | 7° |
| 2026-04-26 15:37 | 52.58928 | 10.02195 | 19784 ft | 381 kts | 7° |
| 2026-04-26 15:38 | 52.61518 | 10.02984 | 19232 ft | 377 kts | 7° |
| 2026-04-26 15:38 | 52.64088 | 10.03768 | 18671 ft | 374 kts | 7° |
| 2026-04-26 15:38 | 52.66635 | 10.04546 | 18067 ft | 371 kts | 7° |
| 2026-04-26 15:38 | 52.69158 | 10.05317 | 17479 ft | 367 kts | 7° |
| 2026-04-26 15:39 | 52.71658 | 10.06080 | 16903 ft | 364 kts | 7° |
| 2026-04-26 15:39 | 52.74137 | 10.06837 | 16332 ft | 361 kts | 7° |
| 2026-04-26 15:39 | 52.76560 | 10.07578 | 15782 ft | 357 kts | 7° |
| 2026-04-26 15:39 | 52.78206 | 10.08081 | 15414 ft | 355 kts | 7° |
| 2026-04-26 15:40 | 52.81410 | 10.09062 | 14705 ft | 351 kts | 7° |
| 2026-04-26 15:40 | 52.83801 | 10.09797 | 14233 ft | 347 kts | 7° |
| 2026-04-26 15:40 | 52.86163 | 10.10525 | 13677 ft | 344 kts | 7° |
| 2026-04-26 15:40 | 52.88504 | 10.11247 | 13135 ft | 340 kts | 7° |
| 2026-04-26 15:41 | 52.90821 | 10.11963 | 12596 ft | 337 kts | 7° |
| 2026-04-26 15:41 | 52.93115 | 10.12671 | 12070 ft | 334 kts | 8° |
| 2026-04-26 15:41 | 52.95385 | 10.13372 | 11630 ft | 329 kts | 8° |
| 2026-04-26 15:41 | 52.97618 | 10.14064 | 11494 ft | 330 kts | 8° |
| 2026-04-26 15:42 | 52.99889 | 10.14765 | 11377 ft | 331 kts | 8° |
| 2026-04-26 15:42 | 53.02142 | 10.15465 | 11296 ft | 329 kts | 8° |
| 2026-04-26 15:42 | 53.04363 | 10.16156 | 11292 ft | 329 kts | 8° |
| 2026-04-26 15:42 | 53.06616 | 10.16857 | 11291 ft | 331 kts | 8° |
| 2026-04-26 15:43 | 53.08928 | 10.17574 | 11291 ft | 342 kts | 8° |
| 2026-04-26 15:43 | 53.11262 | 10.18299 | 11289 ft | 341 kts | 8° |
| 2026-04-26 15:43 | 53.15929 | 10.19758 | 11288 ft | 341 kts | 8° |
| 2026-04-26 15:44 | 53.18261 | 10.20491 | 11288 ft | 341 kts | 8° |
| 2026-04-26 15:44 | 53.22928 | 10.21958 | 11285 ft | 341 kts | 8° |
| 2026-04-26 15:44 | 53.25262 | 10.22692 | 11284 ft | 341 kts | 8° |
| 2026-04-26 15:45 | 53.29893 | 10.24151 | 11292 ft | 341 kts | 8° |
| 2026-04-26 15:45 | 53.32219 | 10.24885 | 11247 ft | 339 kts | 8° |
| 2026-04-26 15:46 | 53.36816 | 10.26339 | 10461 ft | 334 kts | 8° |
| 2026-04-26 15:46 | 53.39087 | 10.27055 | 9885 ft | 331 kts | 8° |
| 2026-04-26 15:46 | 53.41345 | 10.27765 | 9271 ft | 330 kts | 8° |
| 2026-04-26 15:46 | 53.42837 | 10.28235 | 8861 ft | 329 kts | 8° |
| 2026-04-26 15:47 | 53.45826 | 10.29176 | 8260 ft | 322 kts | 8° |
| 2026-04-26 15:47 | 53.50299 | 10.30586 | 7992 ft | 327 kts | 9° |
| 2026-04-26 15:47 | 53.52538 | 10.31297 | 7980 ft | 327 kts | 9° |
| 2026-04-26 15:48 | 53.54744 | 10.32000 | 7984 ft | 328 kts | 9° |
| 2026-04-26 15:48 | 53.56986 | 10.32716 | 7980 ft | 327 kts | 9° |
| 2026-04-26 15:48 | 53.59211 | 10.33429 | 7983 ft | 327 kts | 9° |
| 2026-04-26 15:48 | 53.61439 | 10.34143 | 7822 ft | 324 kts | 9° |
| 2026-04-26 15:49 | 53.63652 | 10.34854 | 7361 ft | 324 kts | 9° |
| 2026-04-26 15:49 | 53.65864 | 10.35561 | 6808 ft | 324 kts | 9° |
| 2026-04-26 15:49 | 53.68073 | 10.36267 | 6237 ft | 322 kts | 9° |
| 2026-04-26 15:49 | 53.70266 | 10.36967 | 5684 ft | 319 kts | 9° |
| 2026-04-26 15:50 | 53.72428 | 10.37752 | 5211 ft | 316 kts | 18° |
| 2026-04-26 15:50 | 53.74304 | 10.39641 | 5044 ft | 320 kts | 43° |
| 2026-04-26 15:50 | 53.75672 | 10.42553 | 4988 ft | 318 kts | 54° |
| 2026-04-26 15:50 | 53.76883 | 10.45547 | 4992 ft | 300 kts | 53° |
| 2026-04-26 15:51 | 53.78346 | 10.47859 | 4987 ft | 280 kts | 28° |
| 2026-04-26 15:51 | 53.80128 | 10.48744 | 4989 ft | 259 kts | 359° |
| 2026-04-26 15:51 | 53.81789 | 10.48117 | 4982 ft | 237 kts | 329° |
| 2026-04-26 15:51 | 53.82912 | 10.46259 | 4994 ft | 225 kts | 296° |
| 2026-04-26 15:52 | 53.83251 | 10.43705 | 4989 ft | 227 kts | 268° |
| 2026-04-26 15:52 | 53.83056 | 10.41063 | 4986 ft | 225 kts | 255° |
| 2026-04-26 15:52 | 53.82431 | 10.38646 | 4985 ft | 225 kts | 238° |
| 2026-04-26 15:52 | 53.81839 | 10.37201 | 4985 ft | 226 kts | 233° |
| 2026-04-26 15:53 | 53.80513 | 10.34445 | 4988 ft | 227 kts | 231° |
| 2026-04-26 15:53 | 53.79504 | 10.32386 | 4932 ft | 229 kts | 231° |
| 2026-04-26 15:53 | 53.78506 | 10.30341 | 4700 ft | 230 kts | 231° |
| 2026-04-26 15:53 | 53.77486 | 10.28256 | 4380 ft | 230 kts | 231° |
| 2026-04-26 15:54 | 53.76461 | 10.26171 | 4070 ft | 231 kts | 231° |
| 2026-04-26 15:54 | 53.75437 | 10.24076 | 3764 ft | 232 kts | 232° |
| 2026-04-26 15:54 | 53.74413 | 10.21975 | 3439 ft | 231 kts | 231° |
| 2026-04-26 15:54 | 53.73384 | 10.19886 | 3130 ft | 232 kts | 232° |
| 2026-04-26 15:55 | 53.72355 | 10.17780 | 2797 ft | 232 kts | 231° |
| 2026-04-26 15:55 | 53.71324 | 10.15684 | 2487 ft | 230 kts | 231° |
| 2026-04-26 15:55 | 53.70336 | 10.13670 | 2169 ft | 215 kts | 231° |
| 2026-04-26 15:55 | 53.69367 | 10.11697 | 1874 ft | 222 kts | 232° |
| 2026-04-26 15:56 | 53.68353 | 10.09634 | 1554 ft | 234 kts | 232° |
| 2026-04-26 15:56 | 53.67333 | 10.07561 | 1236 ft | 227 kts | 232° |
| 2026-04-26 15:56 | 53.66374 | 10.05616 | 934 ft | 204 kts | 232° |
| 2026-04-26 15:56 | 53.65517 | 10.03877 | 721 ft | 181 kts | 232° |
| 2026-04-26 15:57 | 53.64747 | 10.02315 | 467 ft | 164 kts | 233° |
| 2026-04-26 15:57 | 53.64071 | 10.00937 | 268 ft | 143 kts | 232° |
| 2026-04-26 15:57 | 53.63468 | 9.99707 | 90 ft | 128 kts | 231° |
| 2026-04-26 15:57 | 53.63110 | 9.98977 | 46 ft | 112 kts | 230° |
| 2026-04-26 15:58 | 53.62681 | 9.98095 | 43 ft | 35 kts | 231° |
| 2026-04-26 15:58 | 53.62635 | 9.97999 | 42 ft | 2 kts | 231° |
| 2026-04-26 15:58 | 53.62553 | 9.97827 | 41 ft | 26 kts | 232° |
| 2026-04-26 15:58 | 53.62457 | 9.97814 | 40 ft | 14 kts | 114° |
| 2026-04-26 15:59 | 53.62430 | 9.97924 | 41 ft | 11 kts | 91° |
| 2026-04-26 15:59 | 53.62450 | 9.98041 | 41 ft | 11 kts | 32° |
| 2026-04-26 15:59 | 53.62463 | 9.98065 | 41 ft | 0 kts | 56° |
| 2026-04-26 15:59 | 53.62466 | 9.98073 | 40 ft | 4 kts | 56° |
| 2026-04-26 16:00 | 53.62505 | 9.98172 | 40 ft | 14 kts | 57° |
| 2026-04-26 16:00 | 53.62550 | 9.98252 | 42 ft | 7 kts | 48° |
| 2026-04-26 16:00 | 53.62568 | 9.98286 | 42 ft | 3 kts | 48° |
| 2026-04-26 16:00 | 53.62597 | 9.98361 | 42 ft | 10 kts | 62° |
| 2026-04-26 16:01 | 53.62646 | 9.98480 | 42 ft | 14 kts | 43° |
| 2026-04-26 16:01 | 53.62728 | 9.98610 | 42 ft | 18 kts | 39° |
| 2026-04-26 16:01 | 53.62806 | 9.98793 | 43 ft | 21 kts | 48° |
| 2026-04-26 16:01 | 53.62908 | 9.98981 | 43 ft | 23 kts | 44° |
| 2026-04-26 16:02 | 53.62985 | 9.99133 | 44 ft | 11 kts | 49° |
| 2026-04-26 16:02 | 53.63043 | 9.99243 | 44 ft | 13 kts | 58° |
| 2026-04-26 16:02 | 53.63068 | 9.99330 | 44 ft | 0 kts | 63° |
| 2026-04-26 16:02 | 53.63069 | 9.99332 | 44 ft | 2 kts | 63° |
| 2026-04-26 16:03 | 53.63109 | 9.99425 | 45 ft | 12 kts | 42° |
| 2026-04-26 16:03 | 53.63162 | 9.99558 | 44 ft | 16 kts | 54° |
| 2026-04-26 16:03 | 53.63231 | 9.99706 | 44 ft | 17 kts | 59° |
| 2026-04-26 16:03 | 53.63324 | 9.99841 | 45 ft | 16 kts | 31° |
| 2026-04-26 16:04 | 53.63388 | 9.99993 | 45 ft | 18 kts | 58° |
| 2026-04-26 16:04 | 53.63425 | 10.00119 | 45 ft | 9 kts | 91° |
| 2026-04-26 16:04 | 53.63379 | 10.00164 | 45 ft | 9 kts | 188° |
| 2026-04-26 16:04 | 53.63312 | 10.00172 | 42 ft | 8 kts | 136° |
| 2026-04-26 16:05 | 53.63333 | 10.00244 | 45 ft | 9 kts | 56° |
| 2026-04-26 16:05 | 53.63325 | 10.00334 | 44 ft | 6 kts | 117° |
| 2026-04-26 16:05 | 53.63326 | 10.00361 | 44 ft | 0 kts | 90° |